createdAt,value
2018-09-21T00:01:00.055Z,13.04
2018-09-21T00:03:29.172Z,13.12
2018-09-21T00:05:58.287Z,13.18
2018-09-21T00:08:27.267Z,13.09
2018-09-21T00:10:56.356Z,13.23
2018-09-21T00:13:25.586Z,13.22
2018-09-21T00:15:55.808Z,13.16
2018-09-21T00:18:24.987Z,13.12
2018-09-21T00:20:54.139Z,13.14
2018-09-21T00:23:23.500Z,12.90
2018-09-21T00:25:53.409Z,12.89
2018-09-21T00:28:22.714Z,13.08
2018-09-21T00:30:51.905Z,12.74
2018-09-21T00:33:20.959Z,12.73
2018-09-21T00:35:50.190Z,12.84
2018-09-21T00:38:20.029Z,12.89
2018-09-21T00:40:49.280Z,12.78
2018-09-21T00:43:19.316Z,12.78
2018-09-21T00:45:48.413Z,12.79
2018-09-21T00:48:17.596Z,12.73
2018-09-21T00:50:46.686Z,12.69
2018-09-21T00:53:15.921Z,12.80
2018-09-21T00:55:45.277Z,12.72
2018-09-21T00:58:14.769Z,12.64
2018-09-21T01:00:43.832Z,12.55
2018-09-21T01:03:13.184Z,12.62
2018-09-21T01:05:42.658Z,12.67
2018-09-21T01:08:12.024Z,12.66
2018-09-21T01:10:41.243Z,12.49
2018-09-21T01:13:10.323Z,12.45
2018-09-21T01:15:39.451Z,12.44
2018-09-21T01:18:08.594Z,12.46
2018-09-21T01:20:37.718Z,12.37
2018-09-21T01:23:07.012Z,12.43
2018-09-21T01:25:36.428Z,12.34
2018-09-21T01:28:05.929Z,12.35
2018-09-21T01:30:34.899Z,12.29
2018-09-21T01:33:03.920Z,12.26
2018-09-21T01:35:33.174Z,12.31
2018-09-21T01:38:02.109Z,12.20
2018-09-21T01:40:31.173Z,12.20
2018-09-21T01:43:00.232Z,12.19
2018-09-21T01:45:29.367Z,12.21
2018-09-21T01:47:58.716Z,12.21
2018-09-21T01:50:27.951Z,12.18
2018-09-21T01:52:57.615Z,12.14
2018-09-21T01:55:26.647Z,12.06
2018-09-21T01:57:55.955Z,12.00
2018-09-21T02:00:25.102Z,11.85
2018-09-21T02:02:54.049Z,11.70
2018-09-21T02:05:23.733Z,11.86
2018-09-21T02:07:53.000Z,11.91
2018-09-21T02:10:22.025Z,11.87
2018-09-21T02:12:50.996Z,11.92
2018-09-21T02:15:20.017Z,11.96
2018-09-21T02:17:49.138Z,12.00
2018-09-21T02:20:18.272Z,12.03
2018-09-21T02:22:47.337Z,11.95
2018-09-21T02:25:16.446Z,11.96
2018-09-21T02:27:45.461Z,11.92
2018-09-21T02:30:14.853Z,11.85
2018-09-21T02:32:43.921Z,11.75
2018-09-21T02:35:12.880Z,11.83
2018-09-21T02:37:42.028Z,11.77
2018-09-21T02:40:11.183Z,11.85
2018-09-21T02:42:40.142Z,11.77
2018-09-21T02:45:09.398Z,11.68
2018-09-21T02:47:38.400Z,11.65
2018-09-21T02:50:07.784Z,11.67
2018-09-21T02:52:36.806Z,11.64
2018-09-21T02:55:05.814Z,11.58
2018-09-21T02:57:34.863Z,11.53
2018-09-21T03:00:04.052Z,11.51
2018-09-21T03:02:33.245Z,11.48
2018-09-21T03:05:02.240Z,11.52
2018-09-21T03:07:31.305Z,11.54
2018-09-21T03:10:00.471Z,11.47
2018-09-21T03:12:29.443Z,11.47
2018-09-21T03:14:58.439Z,11.46
2018-09-21T03:17:27.489Z,11.53
2018-09-21T03:19:56.506Z,11.57
2018-09-21T03:22:25.556Z,11.45
2018-09-21T03:24:54.524Z,11.35
2018-09-21T03:27:23.606Z,11.49
2018-09-21T03:29:52.571Z,11.31
2018-09-21T03:32:21.685Z,11.34
2018-09-21T03:34:50.785Z,11.28
2018-09-21T03:37:19.711Z,11.26
2018-09-21T03:39:48.776Z,11.25
2018-09-21T03:42:17.973Z,11.19
2018-09-21T03:44:47.359Z,11.18
2018-09-21T03:47:16.469Z,11.17
2018-09-21T03:49:45.477Z,11.28
2018-09-21T03:52:14.647Z,11.14
2018-09-21T03:54:43.704Z,11.12
2018-09-21T03:57:12.791Z,11.06
2018-09-21T03:59:42.082Z,11.12
2018-09-21T04:02:11.135Z,11.04
2018-09-21T04:04:42.937Z,10.85
2018-09-21T04:07:12.516Z,10.93
2018-09-21T04:09:41.608Z,10.98
2018-09-21T04:12:11.424Z,11.05
2018-09-21T04:14:40.539Z,11.05
2018-09-21T04:17:09.737Z,11.01
2018-09-21T04:19:38.877Z,10.97
2018-09-21T04:22:07.941Z,10.94
2018-09-21T04:24:37.390Z,11.04
2018-09-21T04:27:06.469Z,11.02
2018-09-21T04:29:35.533Z,10.94
2018-09-21T04:32:04.549Z,10.89
2018-09-21T04:34:33.559Z,10.91
2018-09-21T04:37:02.666Z,10.88
2018-09-21T04:39:31.636Z,10.95
2018-09-21T04:42:00.766Z,10.88
2018-09-21T04:44:30.285Z,10.86
2018-09-21T04:46:59.858Z,10.85
2018-09-21T04:49:29.120Z,10.83
2018-09-21T04:51:58.672Z,10.81
2018-09-21T04:54:27.977Z,10.80
2018-09-21T04:56:58.386Z,10.70
2018-09-21T04:59:27.436Z,10.76
2018-09-21T05:01:56.504Z,10.47
2018-09-21T05:04:25.583Z,10.62
2018-09-21T05:06:55.076Z,10.69
2018-09-21T05:09:24.220Z,10.73
2018-09-21T05:11:54.884Z,10.78
2018-09-21T05:14:24.264Z,10.83
2018-09-21T05:16:53.285Z,10.81
2018-09-21T05:19:23.240Z,11.75
2018-09-21T05:21:52.246Z,13.30
2018-09-21T05:24:21.472Z,14.03
2018-09-21T05:26:51.969Z,14.13
2018-09-21T05:29:21.018Z,13.61
2018-09-21T05:31:50.646Z,12.98
2018-09-21T05:34:19.845Z,12.20
2018-09-21T05:36:48.983Z,12.27
2018-09-21T05:39:18.073Z,12.28
2018-09-21T05:41:47.155Z,12.38
2018-09-21T05:44:16.121Z,12.80
2018-09-21T05:46:45.197Z,13.39
2018-09-21T05:49:14.290Z,14.25
2018-09-21T05:51:44.433Z,14.68
2018-09-21T05:54:14.011Z,14.04
2018-09-21T05:56:44.677Z,13.17
2018-09-21T05:59:13.742Z,13.35
2018-09-21T06:01:42.724Z,13.24
2018-09-21T06:04:11.748Z,13.18
2018-09-21T06:06:40.896Z,13.23
2018-09-21T06:09:12.134Z,13.21
2018-09-21T06:11:41.765Z,13.28
2018-09-21T06:14:11.707Z,13.29
2018-09-21T06:16:41.142Z,13.35
2018-09-21T06:19:10.148Z,13.65
2018-09-21T06:21:39.232Z,13.70
2018-09-21T06:24:08.432Z,13.80
2018-09-21T06:26:37.430Z,13.57
2018-09-21T06:29:06.530Z,14.01
2018-09-21T06:31:35.656Z,14.19
2018-09-21T06:34:04.754Z,14.30
2018-09-21T06:36:33.769Z,13.97
2018-09-21T06:39:02.795Z,14.18
2018-09-21T06:41:31.831Z,14.13
2018-09-21T06:44:01.190Z,14.15
2018-09-21T06:46:30.490Z,14.14
2018-09-21T06:48:59.494Z,14.50
2018-09-21T06:51:28.518Z,14.74
2018-09-21T06:53:57.491Z,14.83
2018-09-21T06:56:26.505Z,15.14
2018-09-21T06:58:55.932Z,15.02
2018-09-21T07:01:25.085Z,15.36
2018-09-21T07:03:54.572Z,15.40
2018-09-21T07:06:23.668Z,15.45
2018-09-21T07:08:52.868Z,15.76
2018-09-21T07:11:21.860Z,15.64
2018-09-21T07:13:50.963Z,15.82
2018-09-21T07:16:19.944Z,15.87
2018-09-21T07:18:50.505Z,15.85
2018-09-21T07:21:19.463Z,16.08
2018-09-21T07:23:48.493Z,16.78
2018-09-21T07:26:17.529Z,17.07
2018-09-21T07:28:47.579Z,17.26
2018-09-21T07:31:16.809Z,17.33
2018-09-21T07:33:45.808Z,16.94
2018-09-21T07:36:15.177Z,17.25
2018-09-21T07:38:44.595Z,17.82
2018-09-21T07:41:13.533Z,17.92
2018-09-21T07:43:42.869Z,17.94
2018-09-21T07:46:12.179Z,17.80
2018-09-21T07:48:41.780Z,18.21
2018-09-21T07:51:10.744Z,18.66
2018-09-21T07:53:40.040Z,18.83
2018-09-21T07:56:09.055Z,18.10
2018-09-21T07:58:38.032Z,18.66
2018-09-21T08:01:07.121Z,18.77
2018-09-21T08:03:36.194Z,19.01
2018-09-21T08:06:05.406Z,19.24
2018-09-21T08:08:34.466Z,19.32
2018-09-21T08:11:03.543Z,19.30
2018-09-21T08:13:32.951Z,19.71
2018-09-21T08:16:02.453Z,19.10
2018-09-21T08:18:31.796Z,19.24
2018-09-21T08:21:00.772Z,19.75
2018-09-21T08:23:29.878Z,20.19
2018-09-21T08:25:58.906Z,19.51
2018-09-21T08:28:27.945Z,19.98
2018-09-21T08:30:57.105Z,20.63
2018-09-21T08:33:27.148Z,20.76
2018-09-21T08:35:57.062Z,20.42
2018-09-21T08:38:26.365Z,20.22
2018-09-21T08:40:55.498Z,20.23
2018-09-21T08:43:24.624Z,20.34
2018-09-21T08:45:53.609Z,20.84
2018-09-21T08:48:22.696Z,20.84
2018-09-21T08:50:51.710Z,21.10
2018-09-21T08:53:20.922Z,21.52
2018-09-21T08:55:50.073Z,22.00
2018-09-21T08:58:19.075Z,21.83
2018-09-21T09:00:48.197Z,21.69
2018-09-21T09:03:17.363Z,21.72
2018-09-21T09:05:52.239Z,21.82
2018-09-21T09:08:22.842Z,22.13
2018-09-21T09:10:52.223Z,22.03
2018-09-21T09:13:21.258Z,22.58
2018-09-21T09:15:51.003Z,22.55
2018-09-21T09:18:20.001Z,22.54
2018-09-21T09:20:49.062Z,22.64
2018-09-21T09:23:18.200Z,22.66
2018-09-21T09:25:47.688Z,22.78
2018-09-21T09:28:16.989Z,22.88
2018-09-21T09:30:46.087Z,22.62
2018-09-21T09:33:15.028Z,22.21
2018-09-21T09:35:44.056Z,22.75
2018-09-21T09:38:13.039Z,22.88
2018-09-21T09:40:42.069Z,22.97
2018-09-21T09:43:11.087Z,23.08
2018-09-21T09:45:40.142Z,23.51
2018-09-21T09:48:09.156Z,23.47
2018-09-21T09:50:38.165Z,23.62
2018-09-21T09:53:07.336Z,23.90
2018-09-21T09:55:36.318Z,24.02
2018-09-21T09:58:05.394Z,23.24
2018-09-21T10:00:36.422Z,23.66
2018-09-21T10:03:05.443Z,23.44
2018-09-21T10:05:34.417Z,23.35
2018-09-21T10:08:03.438Z,23.90
2018-09-21T10:10:32.418Z,24.31
2018-09-21T10:13:01.436Z,23.96
2018-09-21T10:15:30.579Z,24.46
2018-09-21T10:18:00.574Z,23.77
2018-09-21T10:20:29.717Z,24.01
2018-09-21T10:22:59.032Z,24.42
2018-09-21T10:25:28.515Z,24.76
2018-09-21T10:27:58.018Z,24.96
2018-09-21T10:30:26.976Z,25.28
2018-09-21T10:32:55.968Z,24.36
2018-09-21T10:35:25.131Z,25.22
2018-09-21T10:37:54.227Z,25.47
2018-09-21T10:40:23.635Z,25.55
2018-09-21T10:42:52.964Z,25.49
2018-09-21T10:45:22.154Z,25.62
2018-09-21T10:47:51.416Z,25.18
2018-09-21T10:50:21.697Z,25.37
2018-09-21T10:52:50.914Z,25.13
2018-09-21T10:55:20.085Z,25.90
2018-09-21T10:57:49.275Z,25.55
2018-09-21T11:00:18.238Z,25.74
2018-09-21T11:02:47.424Z,25.80
2018-09-21T11:05:16.418Z,26.12
2018-09-21T11:07:45.680Z,26.02
2018-09-21T11:10:14.812Z,25.98
2018-09-21T11:12:43.914Z,26.22
2018-09-21T11:15:13.025Z,26.65
2018-09-21T11:17:42.160Z,26.61
2018-09-21T11:20:11.292Z,26.80
2018-09-21T11:22:41.403Z,26.82
2018-09-21T11:25:10.474Z,26.54
2018-09-21T11:27:39.556Z,26.61
2018-09-21T11:30:08.633Z,26.72
2018-09-21T11:32:37.732Z,26.51
2018-09-21T11:35:06.903Z,26.80
2018-09-21T11:37:35.977Z,27.06
2018-09-21T11:40:05.125Z,27.08
2018-09-21T11:42:34.208Z,27.58
2018-09-21T11:45:03.255Z,27.56
2018-09-21T11:47:32.446Z,27.56
2018-09-21T11:50:01.502Z,27.51
2018-09-21T11:52:30.723Z,27.48
2018-09-21T11:54:59.727Z,27.78
2018-09-21T11:57:28.904Z,28.02
2018-09-21T11:59:58.430Z,27.67
2018-09-21T12:02:27.472Z,26.83
2018-09-21T12:04:57.402Z,27.79
2018-09-21T12:07:27.110Z,27.68
2018-09-21T12:09:57.281Z,27.35
2018-09-21T12:12:26.562Z,27.66
2018-09-21T12:14:55.702Z,27.74
2018-09-21T12:17:24.800Z,28.05
2018-09-21T12:19:54.096Z,28.17
2018-09-21T12:22:23.535Z,27.41
2018-09-21T12:24:52.937Z,27.80
2018-09-21T12:27:22.389Z,27.67
2018-09-21T12:29:51.534Z,27.92
2018-09-21T12:32:21.517Z,28.12
2018-09-21T12:34:50.705Z,27.77
2018-09-21T12:37:19.914Z,27.63
2018-09-21T12:39:49.743Z,28.09
2018-09-21T12:42:18.837Z,28.20
2018-09-21T12:44:48.090Z,28.41
2018-09-21T12:47:17.135Z,28.37
2018-09-21T12:49:46.738Z,28.47
2018-09-21T12:52:15.896Z,27.79
2018-09-21T12:54:45.709Z,28.04
2018-09-21T12:57:14.810Z,27.54
2018-09-21T12:59:43.921Z,27.45
2018-09-21T13:02:13.029Z,27.93
2018-09-21T13:04:42.214Z,28.30
2018-09-21T13:07:11.734Z,28.34
2018-09-21T13:09:40.819Z,28.72
2018-09-21T13:12:10.012Z,28.40
2018-09-21T13:14:39.127Z,28.25
2018-09-21T13:17:08.174Z,28.33
2018-09-21T13:19:37.189Z,28.52
2018-09-21T13:22:06.243Z,28.64
2018-09-21T13:24:35.355Z,28.48
2018-09-21T13:27:04.463Z,28.49
2018-09-21T13:29:33.592Z,28.51
2018-09-21T13:32:02.787Z,28.68
2018-09-21T13:34:31.898Z,28.41
2018-09-21T13:37:00.992Z,28.50
2018-09-21T13:39:30.201Z,28.52
2018-09-21T13:41:59.436Z,28.46
2018-09-21T13:44:28.835Z,28.32
2018-09-21T13:46:58.376Z,28.41
2018-09-21T13:49:27.584Z,28.67
2018-09-21T13:51:56.687Z,28.67
2018-09-21T13:54:25.834Z,28.69
2018-09-21T13:56:54.990Z,28.58
2018-09-21T13:59:24.107Z,28.50
2018-09-21T14:01:53.317Z,28.54
2018-09-21T14:04:22.414Z,28.54
2018-09-21T14:06:53.005Z,28.50
2018-09-21T14:09:22.168Z,28.63
2018-09-21T14:11:51.339Z,28.52
2018-09-21T14:14:21.105Z,28.55
2018-09-21T14:16:50.217Z,28.57
2018-09-21T14:19:19.436Z,28.60
2018-09-21T14:21:48.539Z,28.36
2018-09-21T14:24:18.162Z,28.24
2018-09-21T14:26:47.556Z,28.41
2018-09-21T14:29:16.764Z,28.28
2018-09-21T14:31:46.000Z,28.05
2018-09-21T14:34:15.053Z,28.11
2018-09-21T14:36:44.154Z,28.07
2018-09-21T14:39:13.205Z,27.96
2018-09-21T14:41:42.243Z,28.00
2018-09-21T14:44:11.410Z,27.70
2018-09-21T14:46:40.646Z,27.65
2018-09-21T14:49:09.764Z,27.45
2018-09-21T14:51:38.903Z,27.27
2018-09-21T14:54:07.973Z,27.53
2018-09-21T14:56:37.060Z,27.46
2018-09-21T14:59:06.101Z,27.17
2018-09-21T15:01:35.602Z,26.93
2018-09-21T15:04:04.916Z,26.60
2018-09-21T15:06:34.418Z,26.45
2018-09-21T15:09:03.606Z,26.43
2018-09-21T15:11:32.810Z,25.89
2018-09-21T15:14:02.009Z,25.91
2018-09-21T15:16:31.161Z,25.88
2018-09-21T15:19:00.224Z,25.96
2018-09-21T15:21:29.331Z,25.79
2018-09-21T15:23:58.478Z,25.74
2018-09-21T15:26:27.579Z,25.44
2018-09-21T15:28:56.582Z,25.02
2018-09-21T15:31:26.006Z,25.19
2018-09-21T15:33:55.057Z,24.66
2018-09-21T15:36:24.300Z,24.48
2018-09-21T15:38:53.389Z,24.47
2018-09-21T15:41:23.041Z,24.16
2018-09-21T15:43:52.076Z,24.19
2018-09-21T15:46:21.104Z,23.83
2018-09-21T15:48:51.715Z,23.64
2018-09-21T15:51:20.821Z,23.52
2018-09-21T15:53:49.841Z,23.42
2018-09-21T15:56:18.937Z,23.42
2018-09-21T15:58:49.965Z,23.23
2018-09-21T16:01:19.097Z,23.21
2018-09-21T16:03:48.156Z,23.03
2018-09-21T16:06:17.340Z,23.04
2018-09-21T16:08:47.377Z,22.96
2018-09-21T16:11:16.455Z,22.98
2018-09-21T16:13:45.622Z,23.05
2018-09-21T16:16:14.970Z,23.01
2018-09-21T16:18:44.096Z,22.90
2018-09-21T16:21:13.147Z,22.88
2018-09-21T16:23:42.335Z,22.45
2018-09-21T16:26:11.630Z,22.55
2018-09-21T16:28:40.981Z,22.53
2018-09-21T16:31:10.098Z,22.19
2018-09-21T16:33:39.122Z,22.17
2018-09-21T16:36:08.270Z,22.25
2018-09-21T16:38:37.529Z,22.23
2018-09-21T16:41:06.881Z,22.31
2018-09-21T16:43:36.846Z,22.29
2018-09-21T16:46:06.306Z,22.07
2018-09-21T16:48:35.428Z,21.97
2018-09-21T16:51:04.703Z,21.93
2018-09-21T16:53:34.107Z,21.99
2018-09-21T16:56:03.165Z,21.91
2018-09-21T16:58:32.343Z,21.76
2018-09-21T17:01:01.356Z,21.67
2018-09-21T17:03:30.839Z,21.61
2018-09-21T17:06:01.066Z,21.59
2018-09-21T17:08:30.829Z,21.55
2018-09-21T17:10:59.936Z,21.36
2018-09-21T17:13:29.091Z,21.26
2018-09-21T17:15:58.571Z,21.00
2018-09-21T17:18:27.768Z,21.13
2018-09-21T17:20:56.794Z,20.91
2018-09-21T17:23:25.935Z,21.02
2018-09-21T17:25:55.132Z,21.16
2018-09-21T17:28:24.206Z,21.20
2018-09-21T17:30:53.497Z,21.07
2018-09-21T17:33:23.672Z,20.93
2018-09-21T17:35:54.134Z,20.89
2018-09-21T17:38:24.058Z,20.86
2018-09-21T17:40:53.597Z,20.71
2018-09-21T17:43:23.141Z,20.71
2018-09-21T17:45:54.017Z,20.67
2018-09-21T17:48:25.085Z,20.63
2018-09-21T17:50:55.229Z,20.64
2018-09-21T17:53:25.471Z,20.49
2018-09-21T17:55:56.393Z,20.30
2018-09-21T17:58:27.376Z,20.28
2018-09-21T18:00:57.045Z,20.25
2018-09-21T18:03:32.964Z,20.11
2018-09-21T18:06:03.466Z,19.98
2018-09-21T18:08:34.263Z,19.73
2018-09-21T18:11:03.939Z,19.68
2018-09-21T18:13:34.835Z,19.58
2018-09-21T18:16:04.429Z,19.60
2018-09-21T18:18:34.106Z,19.36
2018-09-21T18:21:05.819Z,19.42
2018-09-21T18:23:36.998Z,19.70
2018-09-21T18:26:09.076Z,19.84
2018-09-21T18:28:40.323Z,19.86
2018-09-21T18:31:10.043Z,20.00
2018-09-21T18:33:41.000Z,20.12
2018-09-21T18:36:10.675Z,19.99
2018-09-21T18:38:40.120Z,19.90
2018-09-21T18:41:18.637Z,19.75
2018-09-21T18:43:48.061Z,19.75
2018-09-21T18:46:17.525Z,19.84
2018-09-21T18:48:47.883Z,19.81
2018-09-21T18:51:19.079Z,19.66
2018-09-21T18:53:50.661Z,19.53
2018-09-21T18:56:20.190Z,19.56
2018-09-21T18:58:51.331Z,19.51
2018-09-21T19:01:21.133Z,19.55
2018-09-21T19:03:50.314Z,19.54
2018-09-21T19:06:19.540Z,19.42
2018-09-21T19:08:53.508Z,19.47
2018-09-21T19:11:23.297Z,19.62
2018-09-21T19:13:52.554Z,19.49
2018-09-21T19:16:21.794Z,19.45
2018-09-21T19:18:51.120Z,19.24
2018-09-21T19:21:20.409Z,19.21
2018-09-21T19:23:49.885Z,19.29
2018-09-21T19:26:19.218Z,19.38
2018-09-21T19:28:48.557Z,19.45
2018-09-21T19:31:18.301Z,19.42
2018-09-21T19:33:47.608Z,19.42
2018-09-21T19:36:17.059Z,19.37
2018-09-21T19:38:48.325Z,19.40
2018-09-21T19:41:17.819Z,19.24
2018-09-21T19:43:47.287Z,19.08
2018-09-21T19:46:16.693Z,19.11
2018-09-21T19:48:45.916Z,19.03
2018-09-21T19:51:15.529Z,18.90
2018-09-21T19:53:45.071Z,18.86
2018-09-21T19:56:14.414Z,18.72
2018-09-21T19:58:44.107Z,18.80
2018-09-21T20:01:14.363Z,18.65
2018-09-21T20:03:44.311Z,18.76
2018-09-21T20:06:15.194Z,18.53
2018-09-21T20:08:45.068Z,18.58
2018-09-21T20:11:14.342Z,18.66
2018-09-21T20:13:43.625Z,18.70
2018-09-21T20:16:13.264Z,18.67
2018-09-21T20:18:42.408Z,18.64
2018-09-21T20:21:12.063Z,18.73
2018-09-21T20:23:41.271Z,18.76
2018-09-21T20:26:10.536Z,18.83
2018-09-21T20:28:39.971Z,18.86
2018-09-21T20:31:15.084Z,18.84
2018-09-21T20:33:44.265Z,18.92
2018-09-21T20:36:13.697Z,18.84
2018-09-21T20:38:42.773Z,18.60
2018-09-21T20:41:11.879Z,18.47
2018-09-21T20:43:41.728Z,18.50
2018-09-21T20:46:14.004Z,18.67
2018-09-21T20:48:43.250Z,18.97
2018-09-21T20:51:12.438Z,18.80
2018-09-21T20:53:41.626Z,18.78
2018-09-21T20:56:10.710Z,18.84
2018-09-21T20:58:39.928Z,18.95
2018-09-21T21:01:09.253Z,18.98
2018-09-21T21:03:38.517Z,19.00
2018-09-21T21:06:08.522Z,18.98
2018-09-21T21:08:37.693Z,18.95
2018-09-21T21:11:07.137Z,18.96
2018-09-21T21:13:36.973Z,19.02
2018-09-21T21:16:06.219Z,19.06
2018-09-21T21:18:35.695Z,19.04
2018-09-21T21:21:04.816Z,19.09
2018-09-21T21:23:33.903Z,19.09
2018-09-21T21:26:03.120Z,19.14
2018-09-21T21:28:32.252Z,19.11
2018-09-21T21:31:01.372Z,19.12
2018-09-21T21:33:30.630Z,19.25
2018-09-21T21:35:59.813Z,19.30
2018-09-21T21:38:29.482Z,19.19
2018-09-21T21:40:58.877Z,19.10
2018-09-21T21:43:28.080Z,19.13
2018-09-21T21:45:57.162Z,19.05
2018-09-21T21:48:26.349Z,18.91
2018-09-21T21:50:55.432Z,18.84
2018-09-21T21:53:24.693Z,18.57
2018-09-21T21:55:53.780Z,18.59
2018-09-21T21:58:22.891Z,18.56
2018-09-21T22:00:57.525Z,18.49
2018-09-21T22:03:26.651Z,18.51
2018-09-21T22:05:55.721Z,18.53
2018-09-21T22:08:24.928Z,18.40
2018-09-21T22:10:54.076Z,18.31
2018-09-21T22:13:28.516Z,18.25
2018-09-21T22:15:58.025Z,18.36
2018-09-21T22:18:27.529Z,18.38
2018-09-21T22:20:56.629Z,18.40
2018-09-21T22:23:25.735Z,18.40
2018-09-21T22:25:54.835Z,18.45
2018-09-21T22:28:23.865Z,18.45
2018-09-21T22:30:52.958Z,18.34
2018-09-21T22:33:22.064Z,18.28
2018-09-21T22:35:51.336Z,18.11
2018-09-21T22:38:20.368Z,18.25
2018-09-21T22:40:49.519Z,18.27
2018-09-21T22:43:18.896Z,18.33
2018-09-21T22:45:48.399Z,18.25
2018-09-21T22:48:18.522Z,18.40
2018-09-21T22:50:47.575Z,18.32
2018-09-21T22:53:16.593Z,18.21
2018-09-21T22:55:46.285Z,18.21
2018-09-21T22:58:15.395Z,18.14
2018-09-21T23:00:44.694Z,18.09
2018-09-21T23:03:14.225Z,18.14
2018-09-21T23:05:43.627Z,18.15
2018-09-21T23:08:14.465Z,18.23
2018-09-21T23:10:43.562Z,18.21
2018-09-21T23:13:12.583Z,18.16
2018-09-21T23:15:41.669Z,17.95
2018-09-21T23:18:11.053Z,17.75
2018-09-21T23:20:40.089Z,17.86
2018-09-21T23:23:09.060Z,17.84
2018-09-21T23:25:38.622Z,17.69
2018-09-21T23:28:08.869Z,17.56
2018-09-21T23:30:38.127Z,17.43
2018-09-21T23:33:08.091Z,17.03
2018-09-21T23:35:37.538Z,16.91
2018-09-21T23:38:06.893Z,16.68
2018-09-21T23:40:36.075Z,16.16
2018-09-21T23:43:05.699Z,16.13
2018-09-21T23:45:35.190Z,15.99
2018-09-21T23:48:04.507Z,15.87
2018-09-21T23:50:33.638Z,15.50
2018-09-21T23:53:03.109Z,15.59
2018-09-21T23:55:32.721Z,15.77
2018-09-21T23:58:02.315Z,15.57
